Campanya meteocatpedra

Dades de l'estació automàtica Tornabous

?
?
Resum diari 20:00 TU
Dades diàries de l'estació meteorològica
Temperatura mitjana 18.3 °C
Temperatura màxima 27.3 °C 15:19 TU
Temperatura mínima 9.1 °C 5:00 TU
Humitat relativa mitjana 66%
Precipitació acumulada 0.0 mm
Ratxa màxima del vent (2 m) 15.8 km/h - 149º 17:08 TU

El tram horari està expressat en Temps Universal (TU). Cal sumar una hora en horari d'hivern i dues en horari d'estiu per passar a l'hora oficial.

Tornabous

Metadades estació meteorol´gica
Municipi Tornabous
Comarca Urgell
Altitud 291 m
Data alta 06.08.2013
Estat actual Operativa
Dades de període
Període
TU
TM
°C
TX
°C
TN
°C
HRM
%
PPT
mm
VVM (2 m)
km/h
DVM (2 m)
graus
VVX (2 m)
km/h
00:00 - 00:30 11.4 11.5 11.2 92 0.0 2.2 113 6.1
00:30 - 01:00 11.1 11.2 10.9 92 0.0 1.4 100 4.7
01:00 - 01:30 10.7 10.9 10.3 93 0.0 1.8 101 3.6
01:30 - 02:00 10.4 10.6 10.3 94 0.0 1.8 98 3.6
02:00 - 02:30 10.7 10.8 10.6 94 0.0 1.8 78 4.3
02:30 - 03:00 11.0 11.2 10.8 93 0.0 2.2 85 5.4
03:00 - 03:30 11.1 11.2 11.0 92 0.0 1.4 82 6.1
03:30 - 04:00 10.7 11.0 10.2 93 0.0 1.8 71 3.6
04:00 - 04:30 9.9 10.2 9.7 95 0.0 1.4 91 4.0
04:30 - 05:00 9.4 9.7 9.1 95 0.0 1.1 80 2.5
05:00 - 05:30 9.2 9.3 9.1 96 0.0 2.5 73 5.4
05:30 - 06:00 9.7 10.3 9.3 95 0.0 2.9 82 5.4
06:00 - 06:30 11.2 12.0 10.4 90 0.0 3.6 100 7.6
06:30 - 07:00 13.5 14.8 12.1 83 0.0 2.9 101 6.8
07:00 - 07:30 16.2 17.7 15.0 73 0.0 1.4 130 6.1
07:30 - 08:00 17.4 18.1 17.0 68 0.0 1.4 4 5.0
08:00 - 08:30 18.8 19.4 18.1 65 0.0 1.1 339 4.0
08:30 - 09:00 19.9 20.6 19.4 64 0.0 1.8 304 7.6
09:00 - 09:30 21.5 22.2 20.7 61 0.0 1.4 302 5.8
09:30 - 10:00 22.8 23.3 21.9 52 0.0 1.8 76 5.8
10:00 - 10:30 23.2 23.9 22.6 48 0.0 2.5 273 7.9
10:30 - 11:00 23.9 24.6 23.5 47 0.0 2.2 80 9.4
11:00 - 11:30 24.3 24.7 23.9 47 0.0 4.0 179 8.6
11:30 - 12:00 24.9 25.4 24.5 47 0.0 1.8 115 8.3
12:00 - 12:30 24.9 25.4 24.7 48 0.0 3.2 42 7.9
12:30 - 13:00 25.1 25.5 24.8 46 0.0 2.9 33 8.6
13:00 - 13:30 25.6 26.3 25.1 43 0.0 3.2 142 7.9
13:30 - 14:00 25.8 26.2 25.6 43 0.0 3.2 40 11.2
14:00 - 14:30 26.0 26.2 25.7 42 0.0 2.5 19 7.9
14:30 - 15:00 26.1 26.4 25.9 42 0.0 3.6 55 10.4
15:00 - 15:30 26.8 27.3 26.4 43 0.0 2.2 174 6.8
15:30 - 16:00 26.4 27.2 25.7 41 0.0 4.0 149 13.7
16:00 - 16:30 25.4 25.7 24.9 40 0.0 6.1 155 13.3
16:30 - 17:00 24.5 24.9 24.0 42 0.0 5.8 163 15.5
17:00 - 17:30 23.3 23.9 22.6 44 0.0 5.8 162 15.8
17:30 - 18:00 21.9 22.6 21.2 46 0.0 5.0 157 13.0
18:00 - 18:30 20.3 21.1 19.1 50 0.0 3.6 142 13.3
18:30 - 19:00 18.0 19.1 17.0 61 0.0 1.8 94 4.7
19:00 - 19:30 17.4 18.3 16.7 61 0.0 2.5 312 9.7
19:30 - 20:00 15.7 16.5 15.1 69 0.0 1.1 44 5.4
20:00 - 20:30 14.8 15.4 14.4 75 0.0 1.8 83 5.0
20:30 - 21:00 (s/d) (s/d) (s/d) (s/d) (s/d) (s/d) (s/d) (s/d)

Les dades en taronja només han passat un control de qualitat automàtic. Resta pendent la seva validació definitiva.